sensor_id;sensor_type;location;lat;lon;timestamp;P1;P2;P0
62591;PMS5003;48659;41.622;2.276;2023-05-10T00:00:42;8;8;
62591;PMS5003;48659;41.622;2.276;2023-05-10T00:03:09;6;6;
62591;PMS5003;48659;41.622;2.276;2023-05-10T00:05:37;9;7;
62591;PMS5003;48659;41.622;2.276;2023-05-10T00:08:04;10;10;
62591;PMS5003;48659;41.622;2.276;2023-05-10T00:10:32;12;9;
62591;PMS5003;48659;41.622;2.276;2023-05-10T00:12:59;9;9;
62591;PMS5003;48659;41.622;2.276;2023-05-10T00:15:27;11;11;
62591;PMS5003;48659;41.622;2.276;2023-05-10T00:17:55;8;8;
62591;PMS5003;48659;41.622;2.276;2023-05-10T00:20:23;10;10;
62591;PMS5003;48659;41.622;2.276;2023-05-10T00:22:51;11;7;
62591;PMS5003;48659;41.622;2.276;2023-05-10T00:25:19;9;9;
62591;PMS5003;48659;41.622;2.276;2023-05-10T00:27:45;9;9;
62591;PMS5003;48659;41.622;2.276;2023-05-10T00:30:13;8;8;
62591;PMS5003;48659;41.622;2.276;2023-05-10T00:32:40;10;8;
62591;PMS5003;48659;41.622;2.276;2023-05-10T00:35:08;10;10;
62591;PMS5003;48659;41.622;2.276;2023-05-10T00:37:36;7;7;
62591;PMS5003;48659;41.622;2.276;2023-05-10T00:40:03;9;8;
62591;PMS5003;48659;41.622;2.276;2023-05-10T00:42:31;10;9;
62591;PMS5003;48659;41.622;2.276;2023-05-10T00:44:59;12;12;
62591;PMS5003;48659;41.622;2.276;2023-05-10T00:47:26;13;10;
62591;PMS5003;48659;41.622;2.276;2023-05-10T00:49:54;9;8;
62591;PMS5003;48659;41.622;2.276;2023-05-10T00:52:22;10;10;
62591;PMS5003;48659;41.622;2.276;2023-05-10T00:54:49;10;10;
62591;PMS5003;48659;41.622;2.276;2023-05-10T00:57:18;11;11;
62591;PMS5003;48659;41.622;2.276;2023-05-10T00:59:45;11;10;
62591;PMS5003;48659;41.622;2.276;2023-05-10T01:02:13;10;9;
62591;PMS5003;48659;41.622;2.276;2023-05-10T01:04:41;11;10;
62591;PMS5003;48659;41.622;2.276;2023-05-10T01:07:10;9;9;
62591;PMS5003;48659;41.622;2.276;2023-05-10T01:09:37;9;9;
62591;PMS5003;48659;41.622;2.276;2023-05-10T01:12:05;12;12;
62591;PMS5003;48659;41.622;2.276;2023-05-10T01:14:33;11;11;
62591;PMS5003;48659;41.622;2.276;2023-05-10T01:17:01;8;8;
62591;PMS5003;48659;41.622;2.276;2023-05-10T01:19:30;10;9;
62591;PMS5003;48659;41.622;2.276;2023-05-10T01:22:02;12;10;
62591;PMS5003;48659;41.622;2.276;2023-05-10T01:24:49;9;9;
62591;PMS5003;48659;41.622;2.276;2023-05-10T01:29:49;12;12;
62591;PMS5003;48659;41.622;2.276;2023-05-10T01:32:33;12;10;
62591;PMS5003;48659;41.622;2.276;2023-05-10T01:35:06;10;10;
62591;PMS5003;48659;41.622;2.276;2023-05-10T01:37:40;11;11;
62591;PMS5003;48659;41.622;2.276;2023-05-10T01:40:13;9;9;
62591;PMS5003;48659;41.622;2.276;2023-05-10T01:42:49;10;10;
62591;PMS5003;48659;41.622;2.276;2023-05-10T01:45:26;12;10;
62591;PMS5003;48659;41.622;2.276;2023-05-10T01:48:03;14;12;
62591;PMS5003;48659;41.622;2.276;2023-05-10T01:50:34;14;11;
62591;PMS5003;48659;41.622;2.276;2023-05-10T01:53:03;12;12;
62591;PMS5003;48659;41.622;2.276;2023-05-10T01:55:35;10;10;
62591;PMS5003;48659;41.622;2.276;2023-05-10T01:58:17;13;12;
62591;PMS5003;48659;41.622;2.276;2023-05-10T02:00:49;13;13;
62591;PMS5003;48659;41.622;2.276;2023-05-10T02:03:20;10;10;
62591;PMS5003;48659;41.622;2.276;2023-05-10T02:05:50;13;13;
62591;PMS5003;48659;41.622;2.276;2023-05-10T02:08:20;9;9;
62591;PMS5003;48659;41.622;2.276;2023-05-10T02:10:49;12;12;
62591;PMS5003;48659;41.622;2.276;2023-05-10T02:13:18;11;11;
62591;PMS5003;48659;41.622;2.276;2023-05-10T02:15:48;12;10;
62591;PMS5003;48659;41.622;2.276;2023-05-10T02:18:16;12;12;
62591;PMS5003;48659;41.622;2.276;2023-05-10T02:20:45;10;10;
62591;PMS5003;48659;41.622;2.276;2023-05-10T02:23:13;14;11;
62591;PMS5003;48659;41.622;2.276;2023-05-10T02:25:43;16;12;
62591;PMS5003;48659;41.622;2.276;2023-05-10T02:28:12;11;11;
62591;PMS5003;48659;41.622;2.276;2023-05-10T02:30:48;12;12;
62591;PMS5003;48659;41.622;2.276;2023-05-10T02:33:17;15;15;
62591;PMS5003;48659;41.622;2.276;2023-05-10T02:35:46;14;14;
62591;PMS5003;48659;41.622;2.276;2023-05-10T02:38:14;13;13;
62591;PMS5003;48659;41.622;2.276;2023-05-10T02:40:51;14;14;
62591;PMS5003;48659;41.622;2.276;2023-05-10T02:43:20;12;12;
62591;PMS5003;48659;41.622;2.276;2023-05-10T02:45:50;11;11;
62591;PMS5003;48659;41.622;2.276;2023-05-10T02:48:18;14;12;
62591;PMS5003;48659;41.622;2.276;2023-05-10T02:50:51;17;16;
62591;PMS5003;48659;41.622;2.276;2023-05-10T02:53:22;23;21;
62591;PMS5003;48659;41.622;2.276;2023-05-10T02:55:55;18;17;
62591;PMS5003;48659;41.622;2.276;2023-05-10T02:58:26;19;19;
62591;PMS5003;48659;41.622;2.276;2023-05-10T03:00:53;16;15;
62591;PMS5003;48659;41.622;2.276;2023-05-10T03:03:21;22;22;
62591;PMS5003;48659;41.622;2.276;2023-05-10T03:05:48;23;22;
62591;PMS5003;48659;41.622;2.276;2023-05-10T03:08:16;20;20;
62591;PMS5003;48659;41.622;2.276;2023-05-10T03:10:47;16;15;
62591;PMS5003;48659;41.622;2.276;2023-05-10T03:13:25;18;17;
62591;PMS5003;48659;41.622;2.276;2023-05-10T03:15:59;21;18;
62591;PMS5003;48659;41.622;2.276;2023-05-10T03:18:38;17;17;
62591;PMS5003;48659;41.622;2.276;2023-05-10T03:21:11;20;20;
62591;PMS5003;48659;41.622;2.276;2023-05-10T03:23:50;19;16;
62591;PMS5003;48659;41.622;2.276;2023-05-10T03:26:23;22;22;
62591;PMS5003;48659;41.622;2.276;2023-05-10T03:28:52;17;17;
62591;PMS5003;48659;41.622;2.276;2023-05-10T03:31:20;16;16;
62591;PMS5003;48659;41.622;2.276;2023-05-10T03:33:48;15;15;
62591;PMS5003;48659;41.622;2.276;2023-05-10T03:36:16;18;18;
62591;PMS5003;48659;41.622;2.276;2023-05-10T03:38:48;22;21;
62591;PMS5003;48659;41.622;2.276;2023-05-10T03:41:15;19;19;
62591;PMS5003;48659;41.622;2.276;2023-05-10T03:43:47;20;20;
62591;PMS5003;48659;41.622;2.276;2023-05-10T03:46:14;21;18;
62591;PMS5003;48659;41.622;2.276;2023-05-10T03:48:41;18;18;
62591;PMS5003;48659;41.622;2.276;2023-05-10T03:51:08;17;17;
62591;PMS5003;48659;41.622;2.276;2023-05-10T03:53:35;18;18;
62591;PMS5003;48659;41.622;2.276;2023-05-10T03:56:03;19;17;
62591;PMS5003;48659;41.622;2.276;2023-05-10T03:58:31;17;17;
62591;PMS5003;48659;41.622;2.276;2023-05-10T04:00:59;15;15;
62591;PMS5003;48659;41.622;2.276;2023-05-10T04:03:25;20;18;
62591;PMS5003;48659;41.622;2.276;2023-05-10T04:05:59;17;17;
62591;PMS5003;48659;41.622;2.276;2023-05-10T04:08:26;15;14;
62591;PMS5003;48659;41.622;2.276;2023-05-10T04:10:53;17;17;
62591;PMS5003;48659;41.622;2.276;2023-05-10T04:13:21;23;23;
62591;PMS5003;48659;41.622;2.276;2023-05-10T04:15:49;19;19;
62591;PMS5003;48659;41.622;2.276;2023-05-10T04:18:17;24;21;
62591;PMS5003;48659;41.622;2.276;2023-05-10T04:20:45;18;18;
62591;PMS5003;48659;41.622;2.276;2023-05-10T04:23:12;21;19;
62591;PMS5003;48659;41.622;2.276;2023-05-10T04:25:48;20;17;
62591;PMS5003;48659;41.622;2.276;2023-05-10T04:28:16;20;18;
62591;PMS5003;48659;41.622;2.276;2023-05-10T04:30:49;21;21;
62591;PMS5003;48659;41.622;2.276;2023-05-10T04:33:17;19;19;
62591;PMS5003;48659;41.622;2.276;2023-05-10T04:35:43;22;22;
62591;PMS5003;48659;41.622;2.276;2023-05-10T04:38:10;20;20;
62591;PMS5003;48659;41.622;2.276;2023-05-10T04:40:38;16;16;
62591;PMS5003;48659;41.622;2.276;2023-05-10T04:43:05;17;17;
62591;PMS5003;48659;41.622;2.276;2023-05-10T04:45:32;18;17;
62591;PMS5003;48659;41.622;2.276;2023-05-10T04:48:00;17;15;
62591;PMS5003;48659;41.622;2.276;2023-05-10T04:50:27;15;15;
62591;PMS5003;48659;41.622;2.276;2023-05-10T04:52:56;15;13;
62591;PMS5003;48659;41.622;2.276;2023-05-10T04:55:23;19;17;
62591;PMS5003;48659;41.622;2.276;2023-05-10T04:57:50;18;18;
62591;PMS5003;48659;41.622;2.276;2023-05-10T05:00:18;12;12;
62591;PMS5003;48659;41.622;2.276;2023-05-10T05:02:49;13;13;
62591;PMS5003;48659;41.622;2.276;2023-05-10T05:05:16;12;12;
62591;PMS5003;48659;41.622;2.276;2023-05-10T05:07:43;15;13;
62591;PMS5003;48659;41.622;2.276;2023-05-10T05:10:10;16;12;
62591;PMS5003;48659;41.622;2.276;2023-05-10T05:12:37;14;11;
62591;PMS5003;48659;41.622;2.276;2023-05-10T05:15:05;13;11;
62591;PMS5003;48659;41.622;2.276;2023-05-10T05:17:33;10;10;
62591;PMS5003;48659;41.622;2.276;2023-05-10T05:20:02;10;9;
62591;PMS5003;48659;41.622;2.276;2023-05-10T05:22:30;10;10;
62591;PMS5003;48659;41.622;2.276;2023-05-10T05:24:58;9;9;
62591;PMS5003;48659;41.622;2.276;2023-05-10T05:27:25;10;9;
62591;PMS5003;48659;41.622;2.276;2023-05-10T05:29:52;7;7;
62591;PMS5003;48659;41.622;2.276;2023-05-10T05:32:20;13;10;
62591;PMS5003;48659;41.622;2.276;2023-05-10T05:34:48;8;8;
62591;PMS5003;48659;41.622;2.276;2023-05-10T05:37:16;8;8;
62591;PMS5003;48659;41.622;2.276;2023-05-10T05:39:44;8;8;
62591;PMS5003;48659;41.622;2.276;2023-05-10T05:42:12;10;10;
62591;PMS5003;48659;41.622;2.276;2023-05-10T05:44:47;8;8;
62591;PMS5003;48659;41.622;2.276;2023-05-10T05:47:14;11;9;
62591;PMS5003;48659;41.622;2.276;2023-05-10T05:49:41;11;8;
62591;PMS5003;48659;41.622;2.276;2023-05-10T05:52:08;9;6;
62591;PMS5003;48659;41.622;2.276;2023-05-10T05:54:36;8;8;
62591;PMS5003;48659;41.622;2.276;2023-05-10T05:57:04;5;5;
62591;PMS5003;48659;41.622;2.276;2023-05-10T05:59:32;6;6;
62591;PMS5003;48659;41.622;2.276;2023-05-10T06:01:59;8;6;
62591;PMS5003;48659;41.622;2.276;2023-05-10T06:04:26;8;6;
62591;PMS5003;48659;41.622;2.276;2023-05-10T06:06:54;5;5;
62591;PMS5003;48659;41.622;2.276;2023-05-10T06:09:22;5;5;
62591;PMS5003;48659;41.622;2.276;2023-05-10T06:11:49;4;4;
62591;PMS5003;48659;41.622;2.276;2023-05-10T06:14:17;5;5;
62591;PMS5003;48659;41.622;2.276;2023-05-10T06:16:47;6;6;
62591;PMS5003;48659;41.622;2.276;2023-05-10T06:19:14;6;4;
62591;PMS5003;48659;41.622;2.276;2023-05-10T06:21:42;8;8;
62591;PMS5003;48659;41.622;2.276;2023-05-10T06:24:10;7;6;
62591;PMS5003;48659;41.622;2.276;2023-05-10T06:26:37;9;6;
62591;PMS5003;48659;41.622;2.276;2023-05-10T06:29:05;6;6;
62591;PMS5003;48659;41.622;2.276;2023-05-10T06:31:33;7;6;
62591;PMS5003;48659;41.622;2.276;2023-05-10T06:34:01;7;7;
62591;PMS5003;48659;41.622;2.276;2023-05-10T06:36:28;5;5;
62591;PMS5003;48659;41.622;2.276;2023-05-10T06:38:55;7;7;
62591;PMS5003;48659;41.622;2.276;2023-05-10T06:41:22;5;5;
62591;PMS5003;48659;41.622;2.276;2023-05-10T06:43:49;5;5;
62591;PMS5003;48659;41.622;2.276;2023-05-10T06:46:17;36;33;
62591;PMS5003;48659;41.622;2.276;2023-05-10T06:48:45;14;9;
62591;PMS5003;48659;41.622;2.276;2023-05-10T06:51:12;8;8;
62591;PMS5003;48659;41.622;2.276;2023-05-10T06:53:40;10;10;
62591;PMS5003;48659;41.622;2.276;2023-05-10T06:56:08;11;10;
62591;PMS5003;48659;41.622;2.276;2023-05-10T06:58:36;16;14;
62591;PMS5003;48659;41.622;2.276;2023-05-10T07:01:04;10;10;
62591;PMS5003;48659;41.622;2.276;2023-05-10T07:03:32;10;10;
62591;PMS5003;48659;41.622;2.276;2023-05-10T07:06:00;15;12;
62591;PMS5003;48659;41.622;2.276;2023-05-10T07:08:27;10;10;
62591;PMS5003;48659;41.622;2.276;2023-05-10T07:10:59;12;9;
62591;PMS5003;48659;41.622;2.276;2023-05-10T07:13:27;11;10;
62591;PMS5003;48659;41.622;2.276;2023-05-10T07:15:54;10;9;
62591;PMS5003;48659;41.622;2.276;2023-05-10T07:18:21;9;8;
62591;PMS5003;48659;41.622;2.276;2023-05-10T07:20:49;9;9;
62591;PMS5003;48659;41.622;2.276;2023-05-10T07:23:16;8;8;
62591;PMS5003;48659;41.622;2.276;2023-05-10T07:25:45;12;11;
62591;PMS5003;48659;41.622;2.276;2023-05-10T07:28:13;14;12;
62591;PMS5003;48659;41.622;2.276;2023-05-10T07:30:48;11;10;
62591;PMS5003;48659;41.622;2.276;2023-05-10T07:33:17;16;14;
62591;PMS5003;48659;41.622;2.276;2023-05-10T07:35:52;19;18;
62591;PMS5003;48659;41.622;2.276;2023-05-10T07:38:19;15;14;
62591;PMS5003;48659;41.622;2.276;2023-05-10T07:40:52;16;15;
62591;PMS5003;48659;41.622;2.276;2023-05-10T07:43:19;19;18;
62591;PMS5003;48659;41.622;2.276;2023-05-10T07:45:48;21;19;
62591;PMS5003;48659;41.622;2.276;2023-05-10T07:48:15;25;23;
62591;PMS5003;48659;41.622;2.276;2023-05-10T07:50:51;20;18;
62591;PMS5003;48659;41.622;2.276;2023-05-10T07:53:18;19;18;
62591;PMS5003;48659;41.622;2.276;2023-05-10T07:55:50;19;16;
62591;PMS5003;48659;41.622;2.276;2023-05-10T07:58:17;13;13;
62591;PMS5003;48659;41.622;2.276;2023-05-10T08:00:45;13;13;
62591;PMS5003;48659;41.622;2.276;2023-05-10T08:03:13;14;12;
62591;PMS5003;48659;41.622;2.276;2023-05-10T08:05:48;14;14;
62591;PMS5003;48659;41.622;2.276;2023-05-10T08:08:16;11;10;
62591;PMS5003;48659;41.622;2.276;2023-05-10T08:10:51;8;8;
62591;PMS5003;48659;41.622;2.276;2023-05-10T08:13:18;11;11;
62591;PMS5003;48659;41.622;2.276;2023-05-10T08:15:48;10;10;
62591;PMS5003;48659;41.622;2.276;2023-05-10T08:18:16;12;10;
62591;PMS5003;48659;41.622;2.276;2023-05-10T08:20:47;11;9;
62591;PMS5003;48659;41.622;2.276;2023-05-10T08:23:15;9;9;
62591;PMS5003;48659;41.622;2.276;2023-05-10T08:25:48;11;11;
62591;PMS5003;48659;41.622;2.276;2023-05-10T08:28:16;10;10;
62591;PMS5003;48659;41.622;2.276;2023-05-10T08:30:44;11;11;
62591;PMS5003;48659;41.622;2.276;2023-05-10T08:33:11;12;11;
62591;PMS5003;48659;41.622;2.276;2023-05-10T08:35:38;14;13;
62591;PMS5003;48659;41.622;2.276;2023-05-10T08:38:06;10;10;
62591;PMS5003;48659;41.622;2.276;2023-05-10T08:40:34;12;10;
62591;PMS5003;48659;41.622;2.276;2023-05-10T08:43:05;13;11;
62591;PMS5003;48659;41.622;2.276;2023-05-10T08:45:36;8;8;
62591;PMS5003;48659;41.622;2.276;2023-05-10T08:48:06;11;11;
62591;PMS5003;48659;41.622;2.276;2023-05-10T08:50:35;9;9;
62591;PMS5003;48659;41.622;2.276;2023-05-10T08:53:04;12;12;
62591;PMS5003;48659;41.622;2.276;2023-05-10T08:55:35;13;13;
62591;PMS5003;48659;41.622;2.276;2023-05-10T08:58:03;8;8;
62591;PMS5003;48659;41.622;2.276;2023-05-10T09:00:32;16;15;
62591;PMS5003;48659;41.622;2.276;2023-05-10T09:02:59;15;11;
62591;PMS5003;48659;41.622;2.276;2023-05-10T09:05:27;12;10;
62591;PMS5003;48659;41.622;2.276;2023-05-10T09:07:55;11;11;
62591;PMS5003;48659;41.622;2.276;2023-05-10T09:10:23;9;9;
62591;PMS5003;48659;41.622;2.276;2023-05-10T09:12:54;16;15;
62591;PMS5003;48659;41.622;2.276;2023-05-10T09:15:24;12;12;
62591;PMS5003;48659;41.622;2.276;2023-05-10T09:17:52;10;8;
62591;PMS5003;48659;41.622;2.276;2023-05-10T09:20:21;10;10;
62591;PMS5003;48659;41.622;2.276;2023-05-10T09:22:48;9;8;
62591;PMS5003;48659;41.622;2.276;2023-05-10T09:25:16;9;8;
62591;PMS5003;48659;41.622;2.276;2023-05-10T09:27:44;13;9;
62591;PMS5003;48659;41.622;2.276;2023-05-10T09:30:15;8;8;
62591;PMS5003;48659;41.622;2.276;2023-05-10T09:32:48;7;7;
62591;PMS5003;48659;41.622;2.276;2023-05-10T09:35:17;8;8;
62591;PMS5003;48659;41.622;2.276;2023-05-10T09:37:46;11;9;
62591;PMS5003;48659;41.622;2.276;2023-05-10T09:40:16;9;9;
62591;PMS5003;48659;41.622;2.276;2023-05-10T09:42:50;9;9;
62591;PMS5003;48659;41.622;2.276;2023-05-10T09:45:21;10;8;
62591;PMS5003;48659;41.622;2.276;2023-05-10T09:47:50;10;10;
62591;PMS5003;48659;41.622;2.276;2023-05-10T09:50:18;15;14;
62591;PMS5003;48659;41.622;2.276;2023-05-10T09:52:48;14;12;
62591;PMS5003;48659;41.622;2.276;2023-05-10T09:55:18;12;11;
62591;PMS5003;48659;41.622;2.276;2023-05-10T09:57:47;9;9;
62591;PMS5003;48659;41.622;2.276;2023-05-10T10:00:17;19;15;
62591;PMS5003;48659;41.622;2.276;2023-05-10T10:02:54;18;16;
62591;PMS5003;48659;41.622;2.276;2023-05-10T10:05:27;17;14;
62591;PMS5003;48659;41.622;2.276;2023-05-10T10:07:55;8;8;
62591;PMS5003;48659;41.622;2.276;2023-05-10T10:10:25;13;9;
62591;PMS5003;48659;41.622;2.276;2023-05-10T10:12:53;14;13;
62591;PMS5003;48659;41.622;2.276;2023-05-10T10:15:22;12;12;
62591;PMS5003;48659;41.622;2.276;2023-05-10T10:17:50;8;8;
62591;PMS5003;48659;41.622;2.276;2023-05-10T10:20:19;7;7;
62591;PMS5003;48659;41.622;2.276;2023-05-10T10:22:48;8;7;
62591;PMS5003;48659;41.622;2.276;2023-05-10T10:25:16;8;8;
62591;PMS5003;48659;41.622;2.276;2023-05-10T10:27:49;8;6;
62591;PMS5003;48659;41.622;2.276;2023-05-10T10:30:31;7;7;
62591;PMS5003;48659;41.622;2.276;2023-05-10T10:33:13;7;7;
62591;PMS5003;48659;41.622;2.276;2023-05-10T10:35:55;7;6;
62591;PMS5003;48659;41.622;2.276;2023-05-10T10:38:35;5;5;
62591;PMS5003;48659;41.622;2.276;2023-05-10T10:41:08;6;5;
62591;PMS5003;48659;41.622;2.276;2023-05-10T10:43:37;6;6;
62591;PMS5003;48659;41.622;2.276;2023-05-10T10:46:12;6;5;
62591;PMS5003;48659;41.622;2.276;2023-05-10T10:48:50;8;7;
62591;PMS5003;48659;41.622;2.276;2023-05-10T10:51:36;7;4;
62591;PMS5003;48659;41.622;2.276;2023-05-10T10:54:08;6;6;
62591;PMS5003;48659;41.622;2.276;2023-05-10T10:56:36;7;6;
62591;PMS5003;48659;41.622;2.276;2023-05-10T10:59:04;4;4;
62591;PMS5003;48659;41.622;2.276;2023-05-10T11:01:32;2;2;
62591;PMS5003;48659;41.622;2.276;2023-05-10T11:04:37;5;5;
62591;PMS5003;48659;41.622;2.276;2023-05-10T11:07:24;6;6;
62591;PMS5003;48659;41.622;2.276;2023-05-10T11:09:52;4;4;
62591;PMS5003;48659;41.622;2.276;2023-05-10T11:12:21;6;5;
62591;PMS5003;48659;41.622;2.276;2023-05-10T11:14:49;8;5;
62591;PMS5003;48659;41.622;2.276;2023-05-10T11:17:22;6;6;
62591;PMS5003;48659;41.622;2.276;2023-05-10T11:20:06;6;6;
62591;PMS5003;48659;41.622;2.276;2023-05-10T11:22:48;5;3;
62591;PMS5003;48659;41.622;2.276;2023-05-10T11:25:17;5;5;
62591;PMS5003;48659;41.622;2.276;2023-05-10T11:27:45;5;4;
62591;PMS5003;48659;41.622;2.276;2023-05-10T11:30:14;6;5;
62591;PMS5003;48659;41.622;2.276;2023-05-10T11:32:48;4;4;
62591;PMS5003;48659;41.622;2.276;2023-05-10T11:35:16;6;6;
62591;PMS5003;48659;41.622;2.276;2023-05-10T11:37:43;6;5;
62591;PMS5003;48659;41.622;2.276;2023-05-10T11:40:15;5;5;
62591;PMS5003;48659;41.622;2.276;2023-05-10T11:42:59;5;5;
62591;PMS5003;48659;41.622;2.276;2023-05-10T11:45:26;9;8;
62591;PMS5003;48659;41.622;2.276;2023-05-10T11:47:54;7;5;
62591;PMS5003;48659;41.622;2.276;2023-05-10T11:50:23;8;7;
62591;PMS5003;48659;41.622;2.276;2023-05-10T11:52:52;8;7;
62591;PMS5003;48659;41.622;2.276;2023-05-10T11:55:20;6;5;
62591;PMS5003;48659;41.622;2.276;2023-05-10T11:57:53;5;5;
62591;PMS5003;48659;41.622;2.276;2023-05-10T12:00:21;5;5;
62591;PMS5003;48659;41.622;2.276;2023-05-10T12:02:48;6;6;
62591;PMS5003;48659;41.622;2.276;2023-05-10T12:05:16;7;6;
62591;PMS5003;48659;41.622;2.276;2023-05-10T12:07:44;4;4;
62591;PMS5003;48659;41.622;2.276;2023-05-10T12:10:12;7;5;
62591;PMS5003;48659;41.622;2.276;2023-05-10T12:12:47;6;3;
62591;PMS5003;48659;41.622;2.276;2023-05-10T12:15:18;9;6;
62591;PMS5003;48659;41.622;2.276;2023-05-10T12:17:48;6;4;
62591;PMS5003;48659;41.622;2.276;2023-05-10T12:20:17;3;3;
62591;PMS5003;48659;41.622;2.276;2023-05-10T12:22:49;5;5;
62591;PMS5003;48659;41.622;2.276;2023-05-10T12:25:18;3;3;
62591;PMS5003;48659;41.622;2.276;2023-05-10T12:27:49;4;4;
62591;PMS5003;48659;41.622;2.276;2023-05-10T12:30:19;4;4;
62591;PMS5003;48659;41.622;2.276;2023-05-10T12:32:49;4;3;
62591;PMS5003;48659;41.622;2.276;2023-05-10T12:35:17;4;3;
62591;PMS5003;48659;41.622;2.276;2023-05-10T12:37:45;4;2;
62591;PMS5003;48659;41.622;2.276;2023-05-10T12:40:13;4;4;
62591;PMS5003;48659;41.622;2.276;2023-05-10T12:42:48;8;4;
62591;PMS5003;48659;41.622;2.276;2023-05-10T12:45:17;6;5;
62591;PMS5003;48659;41.622;2.276;2023-05-10T12:47:50;4;4;
62591;PMS5003;48659;41.622;2.276;2023-05-10T12:50:17;5;3;
62591;PMS5003;48659;41.622;2.276;2023-05-10T12:52:48;4;3;
62591;PMS5003;48659;41.622;2.276;2023-05-10T12:55:15;3;3;
62591;PMS5003;48659;41.622;2.276;2023-05-10T12:57:47;9;7;
62591;PMS5003;48659;41.622;2.276;2023-05-10T13:00:15;24;20;
62591;PMS5003;48659;41.622;2.276;2023-05-10T13:02:43;5;5;
62591;PMS5003;48659;41.622;2.276;2023-05-10T13:05:10;6;4;
62591;PMS5003;48659;41.622;2.276;2023-05-10T13:07:37;5;4;
62591;PMS5003;48659;41.622;2.276;2023-05-10T13:10:06;4;4;
62591;PMS5003;48659;41.622;2.276;2023-05-10T13:12:34;7;4;
62591;PMS5003;48659;41.622;2.276;2023-05-10T13:15:01;8;7;
62591;PMS5003;48659;41.622;2.276;2023-05-10T13:17:29;9;5;
62591;PMS5003;48659;41.622;2.276;2023-05-10T13:19:57;7;4;
62591;PMS5003;48659;41.622;2.276;2023-05-10T13:22:25;5;3;
62591;PMS5003;48659;41.622;2.276;2023-05-10T13:24:53;7;6;
62591;PMS5003;48659;41.622;2.276;2023-05-10T13:27:20;6;5;
62591;PMS5003;48659;41.622;2.276;2023-05-10T13:29:47;5;4;
62591;PMS5003;48659;41.622;2.276;2023-05-10T13:32:16;4;4;
62591;PMS5003;48659;41.622;2.276;2023-05-10T13:34:43;8;7;
62591;PMS5003;48659;41.622;2.276;2023-05-10T13:37:11;5;5;
62591;PMS5003;48659;41.622;2.276;2023-05-10T13:39:40;9;6;
62591;PMS5003;48659;41.622;2.276;2023-05-10T13:42:08;6;6;
62591;PMS5003;48659;41.622;2.276;2023-05-10T13:44:36;7;7;
62591;PMS5003;48659;41.622;2.276;2023-05-10T13:47:03;7;6;
62591;PMS5003;48659;41.622;2.276;2023-05-10T13:49:31;10;6;
62591;PMS5003;48659;41.622;2.276;2023-05-10T13:51:59;8;7;
62591;PMS5003;48659;41.622;2.276;2023-05-10T13:54:27;7;5;
62591;PMS5003;48659;41.622;2.276;2023-05-10T13:56:53;8;7;
62591;PMS5003;48659;41.622;2.276;2023-05-10T13:59:21;5;3;
62591;PMS5003;48659;41.622;2.276;2023-05-10T14:01:49;5;5;
62591;PMS5003;48659;41.622;2.276;2023-05-10T14:04:16;8;8;
62591;PMS5003;48659;41.622;2.276;2023-05-10T14:06:47;4;4;
62591;PMS5003;48659;41.622;2.276;2023-05-10T14:09:15;6;4;
62591;PMS5003;48659;41.622;2.276;2023-05-10T14:11:43;8;6;
62591;PMS5003;48659;41.622;2.276;2023-05-10T14:14:11;8;3;
62591;PMS5003;48659;41.622;2.276;2023-05-10T14:16:50;5;5;
62591;PMS5003;48659;41.622;2.276;2023-05-10T14:19:18;8;4;
62591;PMS5003;48659;41.622;2.276;2023-05-10T14:21:46;4;4;
62591;PMS5003;48659;41.622;2.276;2023-05-10T14:24:13;7;7;
62591;PMS5003;48659;41.622;2.276;2023-05-10T14:26:41;5;4;
62591;PMS5003;48659;41.622;2.276;2023-05-10T14:29:08;5;4;
62591;PMS5003;48659;41.622;2.276;2023-05-10T14:31:36;2;2;
62591;PMS5003;48659;41.622;2.276;2023-05-10T14:34:04;6;6;
62591;PMS5003;48659;41.622;2.276;2023-05-10T14:36:32;4;4;
62591;PMS5003;48659;41.622;2.276;2023-05-10T14:38:59;6;5;
62591;PMS5003;48659;41.622;2.276;2023-05-10T14:41:28;4;4;
62591;PMS5003;48659;41.622;2.276;2023-05-10T14:43:56;4;4;
62591;PMS5003;48659;41.622;2.276;2023-05-10T14:46:23;9;7;
62591;PMS5003;48659;41.622;2.276;2023-05-10T14:48:51;4;4;
62591;PMS5003;48659;41.622;2.276;2023-05-10T14:51:19;4;4;
62591;PMS5003;48659;41.622;2.276;2023-05-10T14:53:50;5;4;
62591;PMS5003;48659;41.622;2.276;2023-05-10T14:56:17;2;2;
62591;PMS5003;48659;41.622;2.276;2023-05-10T14:58:45;3;3;
62591;PMS5003;48659;41.622;2.276;2023-05-10T15:01:14;5;5;
62591;PMS5003;48659;41.622;2.276;2023-05-10T15:03:42;2;2;
62591;PMS5003;48659;41.622;2.276;2023-05-10T15:06:09;6;5;
62591;PMS5003;48659;41.622;2.276;2023-05-10T15:08:58;6;3;
62591;PMS5003;48659;41.622;2.276;2023-05-10T15:11:27;7;5;
62591;PMS5003;48659;41.622;2.276;2023-05-10T15:13:54;7;7;
62591;PMS5003;48659;41.622;2.276;2023-05-10T15:16:27;4;4;
62591;PMS5003;48659;41.622;2.276;2023-05-10T15:18:55;2;2;
62591;PMS5003;48659;41.622;2.276;2023-05-10T15:21:23;5;3;
62591;PMS5003;48659;41.622;2.276;2023-05-10T15:23:50;5;3;
62591;PMS5003;48659;41.622;2.276;2023-05-10T15:26:18;7;6;
62591;PMS5003;48659;41.622;2.276;2023-05-10T15:28:47;11;5;
62591;PMS5003;48659;41.622;2.276;2023-05-10T15:31:15;8;5;
62591;PMS5003;48659;41.622;2.276;2023-05-10T15:33:48;3;2;
62591;PMS5003;48659;41.622;2.276;2023-05-10T15:36:16;4;3;
62591;PMS5003;48659;41.622;2.276;2023-05-10T15:38:48;5;4;
62591;PMS5003;48659;41.622;2.276;2023-05-10T15:41:15;7;5;
62591;PMS5003;48659;41.622;2.276;2023-05-10T15:43:43;3;3;
62591;PMS5003;48659;41.622;2.276;2023-05-10T15:46:12;5;2;
62591;PMS5003;48659;41.622;2.276;2023-05-10T15:48:40;4;4;
62591;PMS5003;48659;41.622;2.276;2023-05-10T15:51:07;4;3;
62591;PMS5003;48659;41.622;2.276;2023-05-10T15:53:35;5;4;
62591;PMS5003;48659;41.622;2.276;2023-05-10T15:56:03;6;4;
62591;PMS5003;48659;41.622;2.276;2023-05-10T15:58:31;8;5;
62591;PMS5003;48659;41.622;2.276;2023-05-10T16:00:59;6;4;
62591;PMS5003;48659;41.622;2.276;2023-05-10T16:03:27;5;5;
62591;PMS5003;48659;41.622;2.276;2023-05-10T16:05:54;5;5;
62591;PMS5003;48659;41.622;2.276;2023-05-10T16:08:21;5;5;
62591;PMS5003;48659;41.622;2.276;2023-05-10T16:10:50;5;5;
62591;PMS5003;48659;41.622;2.276;2023-05-10T16:13:18;6;5;
62591;PMS5003;48659;41.622;2.276;2023-05-10T16:15:48;9;4;
62591;PMS5003;48659;41.622;2.276;2023-05-10T16:18:16;4;4;
62591;PMS5003;48659;41.622;2.276;2023-05-10T16:20:43;6;4;
62591;PMS5003;48659;41.622;2.276;2023-05-10T16:23:11;4;3;
62591;PMS5003;48659;41.622;2.276;2023-05-10T16:25:38;9;8;
62591;PMS5003;48659;41.622;2.276;2023-05-10T16:28:06;8;6;
62591;PMS5003;48659;41.622;2.276;2023-05-10T16:30:34;4;4;
62591;PMS5003;48659;41.622;2.276;2023-05-10T16:33:02;5;3;
62591;PMS5003;48659;41.622;2.276;2023-05-10T16:35:29;5;4;
62591;PMS5003;48659;41.622;2.276;2023-05-10T16:37:57;5;4;
62591;PMS5003;48659;41.622;2.276;2023-05-10T16:40:24;5;4;
62591;PMS5003;48659;41.622;2.276;2023-05-10T16:42:51;6;5;
62591;PMS5003;48659;41.622;2.276;2023-05-10T16:45:19;3;3;
62591;PMS5003;48659;41.622;2.276;2023-05-10T16:47:47;4;3;
62591;PMS5003;48659;41.622;2.276;2023-05-10T16:50:15;4;4;
62591;PMS5003;48659;41.622;2.276;2023-05-10T16:52:42;5;3;